Aviation Digital Data Service (ADDS)

Output produced by METARs form (1611 UTC 24 August 2016)
found at http://aviationweather.gov/adds/metars/
 
KPBG 241120Z 2412/2512 VRB03KT P6SM SKC 
     FM241500 15009KT P6SM SKC 
     FM250300 18003KT P6SM SKC